sensor_id;sensor_type;location;lat;lon;timestamp;P1;durP1;ratioP1;P2;durP2;ratioP2
24961;SDS011;12992;50.884;13.668;2022-11-20T00:01:39;12.35;;;5.65;;
24961;SDS011;12992;50.884;13.668;2022-11-20T00:04:04;11.23;;;5.43;;
24961;SDS011;12992;50.884;13.668;2022-11-20T00:06:30;11.18;;;5.13;;
24961;SDS011;12992;50.884;13.668;2022-11-20T00:08:56;11.38;;;5.05;;
24961;SDS011;12992;50.884;13.668;2022-11-20T00:11:24;10.80;;;4.80;;
24961;SDS011;12992;50.884;13.668;2022-11-20T00:13:51;9.43;;;5.40;;
24961;SDS011;12992;50.884;13.668;2022-11-20T00:16:18;12.73;;;5.40;;
24961;SDS011;12992;50.884;13.668;2022-11-20T00:18:45;12.65;;;5.88;;
24961;SDS011;12992;50.884;13.668;2022-11-20T00:21:14;21.05;;;6.57;;
24961;SDS011;12992;50.884;13.668;2022-11-20T00:23:41;23.48;;;7.30;;
24961;SDS011;12992;50.884;13.668;2022-11-20T00:26:08;8.82;;;5.00;;
24961;SDS011;12992;50.884;13.668;2022-11-20T00:28:36;9.88;;;4.85;;
24961;SDS011;12992;50.884;13.668;2022-11-20T00:31:09;10.45;;;5.15;;
24961;SDS011;12992;50.884;13.668;2022-11-20T00:33:38;10.63;;;4.50;;
24961;SDS011;12992;50.884;13.668;2022-11-20T00:36:05;10.65;;;4.68;;
24961;SDS011;12992;50.884;13.668;2022-11-20T00:38:32;27.00;;;7.82;;
24961;SDS011;12992;50.884;13.668;2022-11-20T00:40:59;23.70;;;8.50;;
24961;SDS011;12992;50.884;13.668;2022-11-20T00:43:29;17.73;;;6.40;;
24961;SDS011;12992;50.884;13.668;2022-11-20T00:45:58;13.45;;;4.97;;
24961;SDS011;12992;50.884;13.668;2022-11-20T00:48:24;8.18;;;4.82;;
24961;SDS011;12992;50.884;13.668;2022-11-20T00:50:50;8.60;;;4.43;;
24961;SDS011;12992;50.884;13.668;2022-11-20T00:53:16;10.43;;;4.70;;
24961;SDS011;12992;50.884;13.668;2022-11-20T00:55:41;7.65;;;4.25;;
24961;SDS011;12992;50.884;13.668;2022-11-20T00:58:06;11.95;;;4.88;;
24961;SDS011;12992;50.884;13.668;2022-11-20T01:00:32;9.60;;;4.60;;
24961;SDS011;12992;50.884;13.668;2022-11-20T01:02:57;8.52;;;4.18;;
24961;SDS011;12992;50.884;13.668;2022-11-20T01:05:22;9.23;;;4.03;;
24961;SDS011;12992;50.884;13.668;2022-11-20T01:07:48;7.65;;;4.32;;
24961;SDS011;12992;50.884;13.668;2022-11-20T01:10:13;7.78;;;4.20;;
24961;SDS011;12992;50.884;13.668;2022-11-20T01:12:38;8.75;;;4.20;;
24961;SDS011;12992;50.884;13.668;2022-11-20T01:15:04;12.55;;;5.43;;
24961;SDS011;12992;50.884;13.668;2022-11-20T01:17:30;10.82;;;5.13;;
24961;SDS011;12992;50.884;13.668;2022-11-20T01:19:56;9.50;;;4.22;;
24961;SDS011;12992;50.884;13.668;2022-11-20T01:22:22;9.07;;;4.32;;
24961;SDS011;12992;50.884;13.668;2022-11-20T01:24:47;6.88;;;4.00;;
24961;SDS011;12992;50.884;13.668;2022-11-20T01:27:12;6.55;;;3.95;;
24961;SDS011;12992;50.884;13.668;2022-11-20T01:29:38;6.85;;;3.67;;
24961;SDS011;12992;50.884;13.668;2022-11-20T01:32:03;7.78;;;3.90;;
24961;SDS011;12992;50.884;13.668;2022-11-20T01:34:29;5.47;;;3.47;;
24961;SDS011;12992;50.884;13.668;2022-11-20T01:36:54;9.38;;;3.92;;
24961;SDS011;12992;50.884;13.668;2022-11-20T01:39:21;6.55;;;3.78;;
24961;SDS011;12992;50.884;13.668;2022-11-20T01:41:49;6.32;;;3.15;;
24961;SDS011;12992;50.884;13.668;2022-11-20T01:44:43;64.90;;;26.30;;
24961;SDS011;12992;50.884;13.668;2022-11-20T01:47:16;42.00;;;15.50;;
24961;SDS011;12992;50.884;13.668;2022-11-20T01:49:47;72.60;;;25.15;;
24961;SDS011;12992;50.884;13.668;2022-11-20T01:52:19;54.00;;;20.25;;
24961;SDS011;12992;50.884;13.668;2022-11-20T01:54:49;116.78;;;43.80;;
24961;SDS011;12992;50.884;13.668;2022-11-20T01:57:15;151.85;;;52.67;;
24961;SDS011;12992;50.884;13.668;2022-11-20T01:59:45;105.43;;;35.22;;
24961;SDS011;12992;50.884;13.668;2022-11-20T02:02:37;180.25;;;58.33;;
24961;SDS011;12992;50.884;13.668;2022-11-20T02:05:19;73.10;;;28.40;;
24961;SDS011;12992;50.884;13.668;2022-11-20T02:07:49;82.95;;;29.48;;
24961;SDS011;12992;50.884;13.668;2022-11-20T02:10:15;132.50;;;46.63;;
24961;SDS011;12992;50.884;13.668;2022-11-20T02:12:41;117.20;;;44.38;;
24961;SDS011;12992;50.884;13.668;2022-11-20T02:15:25;53.95;;;20.52;;
24961;SDS011;12992;50.884;13.668;2022-11-20T02:17:50;5.97;;;3.38;;
24961;SDS011;12992;50.884;13.668;2022-11-20T02:20:16;7.28;;;3.40;;
24961;SDS011;12992;50.884;13.668;2022-11-20T02:22:44;6.85;;;3.63;;
24961;SDS011;12992;50.884;13.668;2022-11-20T02:25:15;8.57;;;4.13;;
24961;SDS011;12992;50.884;13.668;2022-11-20T02:27:42;5.22;;;3.20;;
24961;SDS011;12992;50.884;13.668;2022-11-20T02:30:08;8.82;;;3.55;;
24961;SDS011;12992;50.884;13.668;2022-11-20T02:32:36;7.32;;;3.58;;
24961;SDS011;12992;50.884;13.668;2022-11-20T02:35:09;6.97;;;3.40;;
24961;SDS011;12992;50.884;13.668;2022-11-20T02:37:55;6.40;;;3.40;;
24961;SDS011;12992;50.884;13.668;2022-11-20T02:40:23;8.02;;;3.55;;
24961;SDS011;12992;50.884;13.668;2022-11-20T02:42:51;7.05;;;3.10;;
24961;SDS011;12992;50.884;13.668;2022-11-20T02:45:17;5.78;;;3.15;;
24961;SDS011;12992;50.884;13.668;2022-11-20T02:47:42;7.78;;;3.60;;
24961;SDS011;12992;50.884;13.668;2022-11-20T02:50:08;7.72;;;3.58;;
24961;SDS011;12992;50.884;13.668;2022-11-20T02:52:33;6.53;;;3.75;;
24961;SDS011;12992;50.884;13.668;2022-11-20T02:54:59;7.80;;;4.28;;
24961;SDS011;12992;50.884;13.668;2022-11-20T02:57:24;6.22;;;3.05;;
24961;SDS011;12992;50.884;13.668;2022-11-20T02:59:49;4.63;;;3.00;;
24961;SDS011;12992;50.884;13.668;2022-11-20T03:02:15;5.80;;;2.80;;
24961;SDS011;12992;50.884;13.668;2022-11-20T03:04:49;4.95;;;2.92;;
24961;SDS011;12992;50.884;13.668;2022-11-20T03:07:15;5.63;;;2.85;;
24961;SDS011;12992;50.884;13.668;2022-11-20T03:09:40;8.63;;;4.57;;
24961;SDS011;12992;50.884;13.668;2022-11-20T03:12:06;6.55;;;2.75;;
24961;SDS011;12992;50.884;13.668;2022-11-20T03:14:31;4.93;;;3.35;;
24961;SDS011;12992;50.884;13.668;2022-11-20T03:16:57;5.80;;;2.83;;
24961;SDS011;12992;50.884;13.668;2022-11-20T03:19:22;5.43;;;2.58;;
24961;SDS011;12992;50.884;13.668;2022-11-20T03:21:47;3.83;;;2.53;;
24961;SDS011;12992;50.884;13.668;2022-11-20T03:24:13;5.80;;;2.90;;
24961;SDS011;12992;50.884;13.668;2022-11-20T03:26:39;3.85;;;2.38;;
24961;SDS011;12992;50.884;13.668;2022-11-20T03:29:04;3.60;;;2.55;;
24961;SDS011;12992;50.884;13.668;2022-11-20T03:31:34;4.50;;;2.78;;
24961;SDS011;12992;50.884;13.668;2022-11-20T03:34:02;3.33;;;2.25;;
24961;SDS011;12992;50.884;13.668;2022-11-20T03:36:28;4.63;;;2.67;;
24961;SDS011;12992;50.884;13.668;2022-11-20T03:38:55;4.22;;;2.45;;
24961;SDS011;12992;50.884;13.668;2022-11-20T03:41:22;3.20;;;2.40;;
24961;SDS011;12992;50.884;13.668;2022-11-20T03:43:49;5.97;;;2.72;;
24961;SDS011;12992;50.884;13.668;2022-11-20T03:46:25;5.75;;;2.65;;
24961;SDS011;12992;50.884;13.668;2022-11-20T03:48:51;6.72;;;3.10;;
24961;SDS011;12992;50.884;13.668;2022-11-20T03:51:17;7.45;;;3.90;;
24961;SDS011;12992;50.884;13.668;2022-11-20T03:53:45;12.88;;;6.30;;
24961;SDS011;12992;50.884;13.668;2022-11-20T03:56:12;5.45;;;3.25;;
24961;SDS011;12992;50.884;13.668;2022-11-20T03:58:39;6.05;;;2.90;;
24961;SDS011;12992;50.884;13.668;2022-11-20T04:01:12;3.60;;;2.65;;
24961;SDS011;12992;50.884;13.668;2022-11-20T04:03:40;4.30;;;2.70;;
24961;SDS011;12992;50.884;13.668;2022-11-20T04:06:08;5.18;;;2.72;;
24961;SDS011;12992;50.884;13.668;2022-11-20T04:08:38;4.43;;;2.80;;
24961;SDS011;12992;50.884;13.668;2022-11-20T04:11:14;6.55;;;2.90;;
24961;SDS011;12992;50.884;13.668;2022-11-20T04:13:39;4.22;;;2.20;;
24961;SDS011;12992;50.884;13.668;2022-11-20T04:16:06;5.60;;;2.67;;
24961;SDS011;12992;50.884;13.668;2022-11-20T04:18:32;6.57;;;2.50;;
24961;SDS011;12992;50.884;13.668;2022-11-20T04:20:58;5.65;;;2.78;;
24961;SDS011;12992;50.884;13.668;2022-11-20T04:23:23;4.70;;;2.67;;
24961;SDS011;12992;50.884;13.668;2022-11-20T04:25:49;5.78;;;2.88;;
24961;SDS011;12992;50.884;13.668;2022-11-20T04:28:14;5.65;;;2.88;;
24961;SDS011;12992;50.884;13.668;2022-11-20T04:30:40;4.78;;;2.97;;
24961;SDS011;12992;50.884;13.668;2022-11-20T04:33:06;5.57;;;2.88;;
24961;SDS011;12992;50.884;13.668;2022-11-20T04:35:33;6.70;;;3.00;;
24961;SDS011;12992;50.884;13.668;2022-11-20T04:37:59;6.18;;;2.92;;
24961;SDS011;12992;50.884;13.668;2022-11-20T04:40:25;3.33;;;2.53;;
24961;SDS011;12992;50.884;13.668;2022-11-20T04:42:50;6.00;;;3.05;;
24961;SDS011;12992;50.884;13.668;2022-11-20T04:45:15;9.27;;;4.15;;
24961;SDS011;12992;50.884;13.668;2022-11-20T04:47:41;6.85;;;3.13;;
24961;SDS011;12992;50.884;13.668;2022-11-20T04:50:06;7.47;;;3.92;;
24961;SDS011;12992;50.884;13.668;2022-11-20T04:52:31;4.93;;;2.75;;
24961;SDS011;12992;50.884;13.668;2022-11-20T04:54:57;6.55;;;3.40;;
24961;SDS011;12992;50.884;13.668;2022-11-20T04:57:22;6.82;;;3.65;;
24961;SDS011;12992;50.884;13.668;2022-11-20T04:59:47;7.45;;;3.60;;
24961;SDS011;12992;50.884;13.668;2022-11-20T05:02:13;7.00;;;3.60;;
24961;SDS011;12992;50.884;13.668;2022-11-20T05:04:38;11.15;;;5.82;;
24961;SDS011;12992;50.884;13.668;2022-11-20T05:07:03;9.38;;;3.83;;
24961;SDS011;12992;50.884;13.668;2022-11-20T05:09:29;10.10;;;3.70;;
24961;SDS011;12992;50.884;13.668;2022-11-20T05:11:55;5.28;;;3.60;;
24961;SDS011;12992;50.884;13.668;2022-11-20T05:14:20;6.85;;;3.90;;
24961;SDS011;12992;50.884;13.668;2022-11-20T05:16:45;10.20;;;4.28;;
24961;SDS011;12992;50.884;13.668;2022-11-20T05:19:11;15.20;;;7.85;;
24961;SDS011;12992;50.884;13.668;2022-11-20T05:21:36;10.23;;;4.50;;
24961;SDS011;12992;50.884;13.668;2022-11-20T05:24:01;7.72;;;4.40;;
24961;SDS011;12992;50.884;13.668;2022-11-20T05:26:27;9.13;;;4.55;;
24961;SDS011;12992;50.884;13.668;2022-11-20T05:28:52;8.48;;;4.30;;
24961;SDS011;12992;50.884;13.668;2022-11-20T05:31:18;6.82;;;3.75;;
24961;SDS011;12992;50.884;13.668;2022-11-20T05:33:49;6.22;;;3.92;;
24961;SDS011;12992;50.884;13.668;2022-11-20T05:36:15;8.90;;;4.05;;
24961;SDS011;12992;50.884;13.668;2022-11-20T05:38:41;8.68;;;4.03;;
24961;SDS011;12992;50.884;13.668;2022-11-20T05:41:08;9.63;;;4.43;;
24961;SDS011;12992;50.884;13.668;2022-11-20T05:43:38;7.30;;;4.00;;
24961;SDS011;12992;50.884;13.668;2022-11-20T05:46:06;8.55;;;3.78;;
24961;SDS011;12992;50.884;13.668;2022-11-20T05:48:33;9.52;;;4.63;;
24961;SDS011;12992;50.884;13.668;2022-11-20T05:51:00;8.95;;;4.65;;
24961;SDS011;12992;50.884;13.668;2022-11-20T05:53:26;7.90;;;4.35;;
24961;SDS011;12992;50.884;13.668;2022-11-20T05:55:58;10.80;;;5.05;;
24961;SDS011;12992;50.884;13.668;2022-11-20T05:58:24;9.88;;;5.28;;
24961;SDS011;12992;50.884;13.668;2022-11-20T06:00:49;18.55;;;7.75;;
24961;SDS011;12992;50.884;13.668;2022-11-20T06:03:15;17.88;;;8.13;;
24961;SDS011;12992;50.884;13.668;2022-11-20T06:05:40;18.00;;;7.95;;
24961;SDS011;12992;50.884;13.668;2022-11-20T06:08:05;16.17;;;7.90;;
24961;SDS011;12992;50.884;13.668;2022-11-20T06:10:31;16.85;;;8.80;;
24961;SDS011;12992;50.884;13.668;2022-11-20T06:12:59;15.43;;;8.20;;
24961;SDS011;12992;50.884;13.668;2022-11-20T06:15:25;15.77;;;7.88;;
24961;SDS011;12992;50.884;13.668;2022-11-20T06:17:53;16.23;;;7.95;;
24961;SDS011;12992;50.884;13.668;2022-11-20T06:20:20;14.57;;;8.05;;
24961;SDS011;12992;50.884;13.668;2022-11-20T06:22:46;17.15;;;8.15;;
24961;SDS011;12992;50.884;13.668;2022-11-20T06:25:11;13.65;;;7.38;;
24961;SDS011;12992;50.884;13.668;2022-11-20T06:27:37;14.02;;;6.68;;
24961;SDS011;12992;50.884;13.668;2022-11-20T06:30:02;17.67;;;9.40;;
24961;SDS011;12992;50.884;13.668;2022-11-20T06:32:28;15.07;;;7.88;;
24961;SDS011;12992;50.884;13.668;2022-11-20T06:34:54;15.50;;;7.63;;
24961;SDS011;12992;50.884;13.668;2022-11-20T06:37:19;17.08;;;8.30;;
24961;SDS011;12992;50.884;13.668;2022-11-20T06:39:44;15.57;;;8.07;;
24961;SDS011;12992;50.884;13.668;2022-11-20T06:42:10;36.63;;;16.35;;
24961;SDS011;12992;50.884;13.668;2022-11-20T06:44:35;29.90;;;13.27;;
24961;SDS011;12992;50.884;13.668;2022-11-20T06:47:00;52.97;;;23.23;;
24961;SDS011;12992;50.884;13.668;2022-11-20T06:49:26;37.28;;;16.63;;
24961;SDS011;12992;50.884;13.668;2022-11-20T06:51:51;19.33;;;9.90;;
24961;SDS011;12992;50.884;13.668;2022-11-20T06:54:16;23.75;;;11.55;;
24961;SDS011;12992;50.884;13.668;2022-11-20T06:56:42;26.77;;;14.25;;
24961;SDS011;12992;50.884;13.668;2022-11-20T06:59:07;21.05;;;11.63;;
24961;SDS011;12992;50.884;13.668;2022-11-20T07:01:33;19.80;;;10.13;;
24961;SDS011;12992;50.884;13.668;2022-11-20T07:03:58;26.75;;;13.45;;
24961;SDS011;12992;50.884;13.668;2022-11-20T07:06:24;15.70;;;8.15;;
24961;SDS011;12992;50.884;13.668;2022-11-20T07:08:52;15.32;;;7.55;;
24961;SDS011;12992;50.884;13.668;2022-11-20T07:11:17;15.55;;;6.75;;
24961;SDS011;12992;50.884;13.668;2022-11-20T07:13:43;13.98;;;7.32;;
24961;SDS011;12992;50.884;13.668;2022-11-20T07:16:08;16.90;;;7.30;;
24961;SDS011;12992;50.884;13.668;2022-11-20T07:18:34;13.95;;;7.10;;
24961;SDS011;12992;50.884;13.668;2022-11-20T07:21:03;15.45;;;7.22;;
24961;SDS011;12992;50.884;13.668;2022-11-20T07:23:30;13.45;;;7.30;;
24961;SDS011;12992;50.884;13.668;2022-11-20T07:25:56;17.88;;;8.23;;
24961;SDS011;12992;50.884;13.668;2022-11-20T07:28:21;15.10;;;7.63;;
24961;SDS011;12992;50.884;13.668;2022-11-20T07:30:50;13.43;;;6.95;;
24961;SDS011;12992;50.884;13.668;2022-11-20T07:33:18;17.50;;;7.15;;
24961;SDS011;12992;50.884;13.668;2022-11-20T07:35:44;13.50;;;6.93;;
24961;SDS011;12992;50.884;13.668;2022-11-20T07:38:10;13.40;;;6.65;;
24961;SDS011;12992;50.884;13.668;2022-11-20T07:40:35;11.43;;;6.15;;
24961;SDS011;12992;50.884;13.668;2022-11-20T07:43:00;13.25;;;7.50;;
24961;SDS011;12992;50.884;13.668;2022-11-20T07:45:26;13.77;;;7.05;;
24961;SDS011;12992;50.884;13.668;2022-11-20T07:47:51;11.38;;;6.53;;
24961;SDS011;12992;50.884;13.668;2022-11-20T07:50:16;11.10;;;6.43;;
24961;SDS011;12992;50.884;13.668;2022-11-20T07:52:42;11.15;;;6.90;;
24961;SDS011;12992;50.884;13.668;2022-11-20T07:55:08;11.25;;;6.22;;
24961;SDS011;12992;50.884;13.668;2022-11-20T07:57:34;10.55;;;6.47;;
24961;SDS011;12992;50.884;13.668;2022-11-20T08:00:00;11.15;;;6.05;;
24961;SDS011;12992;50.884;13.668;2022-11-20T08:02:25;11.52;;;6.20;;
24961;SDS011;12992;50.884;13.668;2022-11-20T08:04:50;9.60;;;5.97;;
24961;SDS011;12992;50.884;13.668;2022-11-20T08:07:16;9.52;;;5.40;;
24961;SDS011;12992;50.884;13.668;2022-11-20T08:09:41;12.20;;;6.25;;
24961;SDS011;12992;50.884;13.668;2022-11-20T08:12:18;9.70;;;5.75;;
24961;SDS011;12992;50.884;13.668;2022-11-20T08:15:04;9.73;;;5.60;;
24961;SDS011;12992;50.884;13.668;2022-11-20T08:17:30;7.72;;;4.65;;
24961;SDS011;12992;50.884;13.668;2022-11-20T08:19:55;12.05;;;5.95;;
24961;SDS011;12992;50.884;13.668;2022-11-20T08:22:21;10.48;;;5.85;;
24961;SDS011;12992;50.884;13.668;2022-11-20T08:24:46;10.77;;;5.28;;
24961;SDS011;12992;50.884;13.668;2022-11-20T08:27:12;12.43;;;6.00;;
24961;SDS011;12992;50.884;13.668;2022-11-20T08:29:37;11.38;;;5.55;;
24961;SDS011;12992;50.884;13.668;2022-11-20T08:32:02;11.02;;;5.82;;
24961;SDS011;12992;50.884;13.668;2022-11-20T08:34:28;10.35;;;5.72;;
24961;SDS011;12992;50.884;13.668;2022-11-20T08:36:53;10.32;;;5.72;;
24961;SDS011;12992;50.884;13.668;2022-11-20T08:39:19;10.75;;;5.70;;
24961;SDS011;12992;50.884;13.668;2022-11-20T08:41:44;8.98;;;5.35;;
24961;SDS011;12992;50.884;13.668;2022-11-20T08:44:09;8.95;;;5.60;;
24961;SDS011;12992;50.884;13.668;2022-11-20T08:46:39;7.93;;;4.70;;
24961;SDS011;12992;50.884;13.668;2022-11-20T08:49:07;7.88;;;4.63;;
24961;SDS011;12992;50.884;13.668;2022-11-20T08:51:37;8.60;;;4.60;;
24961;SDS011;12992;50.884;13.668;2022-11-20T08:54:03;7.95;;;4.20;;
24961;SDS011;12992;50.884;13.668;2022-11-20T08:56:29;9.43;;;5.30;;
24961;SDS011;12992;50.884;13.668;2022-11-20T08:58:55;8.43;;;4.68;;
24961;SDS011;12992;50.884;13.668;2022-11-20T09:01:21;7.70;;;4.88;;
24961;SDS011;12992;50.884;13.668;2022-11-20T09:03:48;8.98;;;4.35;;
24961;SDS011;12992;50.884;13.668;2022-11-20T09:06:14;7.80;;;4.50;;
24961;SDS011;12992;50.884;13.668;2022-11-20T09:08:40;7.88;;;4.72;;
24961;SDS011;12992;50.884;13.668;2022-11-20T09:11:05;7.55;;;4.20;;
24961;SDS011;12992;50.884;13.668;2022-11-20T09:13:31;9.57;;;5.47;;
24961;SDS011;12992;50.884;13.668;2022-11-20T09:16:00;7.47;;;4.85;;
24961;SDS011;12992;50.884;13.668;2022-11-20T09:18:31;8.90;;;4.82;;
24961;SDS011;12992;50.884;13.668;2022-11-20T09:21:00;9.90;;;5.15;;
24961;SDS011;12992;50.884;13.668;2022-11-20T09:23:27;7.53;;;4.30;;
24961;SDS011;12992;50.884;13.668;2022-11-20T09:25:57;7.55;;;4.28;;
24961;SDS011;12992;50.884;13.668;2022-11-20T09:28:25;5.72;;;3.40;;
24961;SDS011;12992;50.884;13.668;2022-11-20T09:30:51;4.80;;;3.38;;
24961;SDS011;12992;50.884;13.668;2022-11-20T09:33:16;6.20;;;3.33;;
24961;SDS011;12992;50.884;13.668;2022-11-20T09:35:42;7.85;;;3.70;;
24961;SDS011;12992;50.884;13.668;2022-11-20T09:38:08;6.13;;;3.30;;
24961;SDS011;12992;50.884;13.668;2022-11-20T09:40:35;6.03;;;3.53;;
24961;SDS011;12992;50.884;13.668;2022-11-20T09:48:32;6.03;;;3.30;;
24961;SDS011;12992;50.884;13.668;2022-11-20T09:51:23;6.90;;;3.88;;
24961;SDS011;12992;50.884;13.668;2022-11-20T09:54:07;6.47;;;3.47;;
24961;SDS011;12992;50.884;13.668;2022-11-20T09:56:37;5.82;;;3.10;;
24961;SDS011;12992;50.884;13.668;2022-11-20T09:59:06;5.10;;;3.22;;
24961;SDS011;12992;50.884;13.668;2022-11-20T10:01:39;5.18;;;2.95;;
24961;SDS011;12992;50.884;13.668;2022-11-20T10:04:19;6.40;;;3.40;;
24961;SDS011;12992;50.884;13.668;2022-11-20T10:06:52;5.35;;;3.15;;
24961;SDS011;12992;50.884;13.668;2022-11-20T10:09:36;5.07;;;3.10;;
24961;SDS011;12992;50.884;13.668;2022-11-20T10:12:20;5.82;;;3.30;;
24961;SDS011;12992;50.884;13.668;2022-11-20T10:14:58;4.82;;;2.90;;
24961;SDS011;12992;50.884;13.668;2022-11-20T10:20:40;3.20;;;2.53;;
24961;SDS011;12992;50.884;13.668;2022-11-20T10:23:25;5.20;;;2.50;;
24961;SDS011;12992;50.884;13.668;2022-11-20T10:26:16;4.63;;;2.70;;
24961;SDS011;12992;50.884;13.668;2022-11-20T10:31:39;3.47;;;2.53;;
24961;SDS011;12992;50.884;13.668;2022-11-20T10:34:12;5.60;;;3.25;;
24961;SDS011;12992;50.884;13.668;2022-11-20T10:37:09;3.78;;;2.53;;
24961;SDS011;12992;50.884;13.668;2022-11-20T10:39:42;4.10;;;2.92;;
24961;SDS011;12992;50.884;13.668;2022-11-20T10:42:16;4.90;;;2.55;;
24961;SDS011;12992;50.884;13.668;2022-11-20T10:44:50;5.43;;;3.40;;
24961;SDS011;12992;50.884;13.668;2022-11-20T10:47:26;5.35;;;3.03;;
24961;SDS011;12992;50.884;13.668;2022-11-20T10:49:53;4.88;;;3.40;;
24961;SDS011;12992;50.884;13.668;2022-11-20T10:52:39;5.30;;;3.30;;
24961;SDS011;12992;50.884;13.668;2022-11-20T10:55:40;3.97;;;2.88;;
24961;SDS011;12992;50.884;13.668;2022-11-20T11:01:05;6.07;;;3.33;;
24961;SDS011;12992;50.884;13.668;2022-11-20T11:03:52;4.55;;;2.97;;
24961;SDS011;12992;50.884;13.668;2022-11-20T11:06:25;5.25;;;3.40;;
24961;SDS011;12992;50.884;13.668;2022-11-20T11:08:58;8.07;;;3.75;;
24961;SDS011;12992;50.884;13.668;2022-11-20T11:11:30;4.68;;;3.38;;
24961;SDS011;12992;50.884;13.668;2022-11-20T11:14:08;6.45;;;3.40;;
24961;SDS011;12992;50.884;13.668;2022-11-20T11:16:34;4.25;;;2.83;;
24961;SDS011;12992;50.884;13.668;2022-11-20T11:19:04;5.15;;;3.70;;
24961;SDS011;12992;50.884;13.668;2022-11-20T11:21:36;5.13;;;3.35;;
24961;SDS011;12992;50.884;13.668;2022-11-20T11:24:14;5.33;;;3.80;;
24961;SDS011;12992;50.884;13.668;2022-11-20T11:27:01;7.97;;;4.00;;
24961;SDS011;12992;50.884;13.668;2022-11-20T11:29:29;6.50;;;4.00;;
24961;SDS011;12992;50.884;13.668;2022-11-20T11:35:03;6.25;;;4.32;;
24961;SDS011;12992;50.884;13.668;2022-11-20T11:37:43;7.82;;;4.75;;
24961;SDS011;12992;50.884;13.668;2022-11-20T11:40:12;9.77;;;4.80;;
24961;SDS011;12992;50.884;13.668;2022-11-20T11:42:45;9.57;;;5.30;;
24961;SDS011;12992;50.884;13.668;2022-11-20T11:45:17;11.85;;;5.75;;
24961;SDS011;12992;50.884;13.668;2022-11-20T11:47:44;9.60;;;5.40;;
24961;SDS011;12992;50.884;13.668;2022-11-20T11:52:41;12.57;;;6.43;;
24961;SDS011;12992;50.884;13.668;2022-11-20T11:55:12;10.50;;;5.85;;
24961;SDS011;12992;50.884;13.668;2022-11-20T11:57:49;8.63;;;4.65;;
24961;SDS011;12992;50.884;13.668;2022-11-20T12:00:21;13.02;;;6.18;;
24961;SDS011;12992;50.884;13.668;2022-11-20T12:07:54;16.42;;;8.35;;
24961;SDS011;12992;50.884;13.668;2022-11-20T12:16:23;18.00;;;8.80;;
24961;SDS011;12992;50.884;13.668;2022-11-20T12:18:50;17.73;;;8.27;;
24961;SDS011;12992;50.884;13.668;2022-11-20T12:21:20;17.88;;;8.15;;
24961;SDS011;12992;50.884;13.668;2022-11-20T12:29:17;15.77;;;8.15;;
24961;SDS011;12992;50.884;13.668;2022-11-20T12:37:52;16.80;;;8.82;;
24961;SDS011;12992;50.884;13.668;2022-11-20T12:40:28;19.42;;;7.70;;
24961;SDS011;12992;50.884;13.668;2022-11-20T13:08:25;22.50;;;10.00;;
24961;SDS011;12992;50.884;13.668;2022-11-20T13:11:01;20.98;;;9.40;;
24961;SDS011;12992;50.884;13.668;2022-11-20T13:16:29;20.92;;;9.63;;
24961;SDS011;12992;50.884;13.668;2022-11-20T13:19:17;22.75;;;10.00;;
24961;SDS011;12992;50.884;13.668;2022-11-20T13:21:44;20.48;;;9.15;;
24961;SDS011;12992;50.884;13.668;2022-11-20T13:27:05;18.83;;;9.32;;
24961;SDS011;12992;50.884;13.668;2022-11-20T13:29:34;18.88;;;8.73;;
24961;SDS011;12992;50.884;13.668;2022-11-20T13:32:05;18.77;;;9.20;;
24961;SDS011;12992;50.884;13.668;2022-11-20T13:34:38;20.50;;;9.85;;
24961;SDS011;12992;50.884;13.668;2022-11-20T13:37:04;20.60;;;10.05;;
24961;SDS011;12992;50.884;13.668;2022-11-20T13:39:30;20.80;;;9.63;;
24961;SDS011;12992;50.884;13.668;2022-11-20T13:44:38;20.23;;;10.07;;
24961;SDS011;12992;50.884;13.668;2022-11-20T13:47:23;21.30;;;10.13;;
24961;SDS011;12992;50.884;13.668;2022-11-20T13:49:51;19.23;;;9.93;;
24961;SDS011;12992;50.884;13.668;2022-11-20T13:55:26;20.40;;;9.95;;
24961;SDS011;12992;50.884;13.668;2022-11-20T13:57:59;21.90;;;10.35;;
24961;SDS011;12992;50.884;13.668;2022-11-20T14:00:26;21.70;;;9.65;;
24961;SDS011;12992;50.884;13.668;2022-11-20T14:05:23;19.20;;;9.23;;
24961;SDS011;12992;50.884;13.668;2022-11-20T14:07:48;17.55;;;8.23;;
24961;SDS011;12992;50.884;13.668;2022-11-20T14:10:20;19.45;;;9.25;;
24961;SDS011;12992;50.884;13.668;2022-11-20T14:12:47;17.03;;;8.30;;
24961;SDS011;12992;50.884;13.668;2022-11-20T14:15:23;18.92;;;9.25;;
24961;SDS011;12992;50.884;13.668;2022-11-20T14:17:57;18.42;;;8.63;;
24961;SDS011;12992;50.884;13.668;2022-11-20T14:20:24;17.15;;;9.43;;
24961;SDS011;12992;50.884;13.668;2022-11-20T14:22:56;17.60;;;9.13;;
24961;SDS011;12992;50.884;13.668;2022-11-20T14:25:22;16.63;;;9.25;;
24961;SDS011;12992;50.884;13.668;2022-11-20T14:27:52;16.80;;;8.85;;
24961;SDS011;12992;50.884;13.668;2022-11-20T14:30:38;17.80;;;9.00;;
24961;SDS011;12992;50.884;13.668;2022-11-20T14:33:12;20.73;;;10.02;;
24961;SDS011;12992;50.884;13.668;2022-11-20T14:35:49;19.63;;;9.38;;
24961;SDS011;12992;50.884;13.668;2022-11-20T14:38:21;20.27;;;9.52;;
24961;SDS011;12992;50.884;13.668;2022-11-20T14:40:50;18.98;;;9.80;;
24961;SDS011;12992;50.884;13.668;2022-11-20T14:43:19;17.52;;;9.98;;
24961;SDS011;12992;50.884;13.668;2022-11-20T14:45:50;15.07;;;8.00;;
24961;SDS011;12992;50.884;13.668;2022-11-20T14:48:28;17.50;;;8.23;;
24961;SDS011;12992;50.884;13.668;2022-11-20T14:53:22;13.48;;;7.30;;
24961;SDS011;12992;50.884;13.668;2022-11-20T14:55:54;15.00;;;7.55;;
24961;SDS011;12992;50.884;13.668;2022-11-20T14:58:22;15.05;;;7.40;;
24961;SDS011;12992;50.884;13.668;2022-11-20T15:01:00;11.82;;;6.25;;
24961;SDS011;12992;50.884;13.668;2022-11-20T15:03:31;14.25;;;7.88;;
24961;SDS011;12992;50.884;13.668;2022-11-20T15:06:03;15.60;;;7.32;;
24961;SDS011;12992;50.884;13.668;2022-11-20T15:08:30;12.57;;;6.78;;
24961;SDS011;12992;50.884;13.668;2022-11-20T15:10:55;14.77;;;7.05;;
24961;SDS011;12992;50.884;13.668;2022-11-20T15:13:34;13.88;;;7.43;;
24961;SDS011;12992;50.884;13.668;2022-11-20T15:16:03;13.70;;;7.10;;
24961;SDS011;12992;50.884;13.668;2022-11-20T15:18:38;12.57;;;7.50;;
24961;SDS011;12992;50.884;13.668;2022-11-20T15:21:12;13.95;;;7.03;;
24961;SDS011;12992;50.884;13.668;2022-11-20T15:23:42;15.00;;;7.25;;
24961;SDS011;12992;50.884;13.668;2022-11-20T15:26:08;14.05;;;7.45;;
24961;SDS011;12992;50.884;13.668;2022-11-20T15:28:41;11.45;;;7.00;;
24961;SDS011;12992;50.884;13.668;2022-11-20T15:31:12;12.10;;;7.00;;
24961;SDS011;12992;50.884;13.668;2022-11-20T15:33:39;13.68;;;7.72;;
24961;SDS011;12992;50.884;13.668;2022-11-20T15:36:05;13.40;;;7.07;;
24961;SDS011;12992;50.884;13.668;2022-11-20T15:38:30;12.75;;;6.78;;
24961;SDS011;12992;50.884;13.668;2022-11-20T15:40:56;11.00;;;6.22;;
24961;SDS011;12992;50.884;13.668;2022-11-20T15:43:21;12.25;;;6.93;;
24961;SDS011;12992;50.884;13.668;2022-11-20T15:45:50;12.52;;;7.47;;
24961;SDS011;12992;50.884;13.668;2022-11-20T15:48:20;10.05;;;6.45;;
24961;SDS011;12992;50.884;13.668;2022-11-20T15:53:38;10.40;;;5.93;;
24961;SDS011;12992;50.884;13.668;2022-11-20T15:56:05;12.38;;;6.90;;
24961;SDS011;12992;50.884;13.668;2022-11-20T15:58:31;10.32;;;6.05;;
24961;SDS011;12992;50.884;13.668;2022-11-20T16:00:56;12.50;;;7.05;;
24961;SDS011;12992;50.884;13.668;2022-11-20T16:03:21;13.82;;;7.18;;